sensor_id;sensor_type;location;lat;lon;timestamp;pressure;altitude;pressure_sealevel;temperature;humidity
36190;BME280;22232;50.914;13.858;2022-08-19T00:01:27;97046.28;;;20.78;100.00
36190;BME280;22232;50.914;13.858;2022-08-19T00:04:02;97046.13;;;20.74;100.00
36190;BME280;22232;50.914;13.858;2022-08-19T00:06:30;97055.00;;;20.66;100.00
36190;BME280;22232;50.914;13.858;2022-08-19T00:08:58;97053.94;;;20.67;100.00
36190;BME280;22232;50.914;13.858;2022-08-19T00:11:27;97055.84;;;20.67;100.00
36190;BME280;22232;50.914;13.858;2022-08-19T00:13:55;97053.94;;;20.76;100.00
36190;BME280;22232;50.914;13.858;2022-08-19T00:16:25;97055.84;;;20.75;100.00
36190;BME280;22232;50.914;13.858;2022-08-19T00:18:54;97070.03;;;20.72;100.00
36190;BME280;22232;50.914;13.858;2022-08-19T00:21:24;97077.69;;;20.70;100.00
36190;BME280;22232;50.914;13.858;2022-08-19T00:23:54;97070.50;;;20.74;100.00
36190;BME280;22232;50.914;13.858;2022-08-19T00:26:27;97080.69;;;20.69;100.00
36190;BME280;22232;50.914;13.858;2022-08-19T00:28:55;97067.09;;;20.60;100.00
36190;BME280;22232;50.914;13.858;2022-08-19T00:31:22;97069.19;;;20.63;100.00
36190;BME280;22232;50.914;13.858;2022-08-19T00:33:50;97069.81;;;20.60;100.00
36190;BME280;22232;50.914;13.858;2022-08-19T00:36:18;97071.56;;;20.56;100.00
36190;BME280;22232;50.914;13.858;2022-08-19T00:38:46;97075.06;;;20.56;100.00
36190;BME280;22232;50.914;13.858;2022-08-19T00:41:16;97072.34;;;20.56;100.00
36190;BME280;22232;50.914;13.858;2022-08-19T00:46:38;97065.19;;;20.52;100.00
36190;BME280;22232;50.914;13.858;2022-08-19T00:51:45;97078.84;;;20.47;100.00
36190;BME280;22232;50.914;13.858;2022-08-19T00:54:14;97073.53;;;20.42;100.00
36190;BME280;22232;50.914;13.858;2022-08-19T00:56:42;97072.63;;;20.46;100.00
36190;BME280;22232;50.914;13.858;2022-08-19T00:59:11;97073.41;;;20.47;100.00
36190;BME280;22232;50.914;13.858;2022-08-19T01:01:41;97073.59;;;20.50;100.00
36190;BME280;22232;50.914;13.858;2022-08-19T01:04:09;97075.81;;;20.48;100.00
36190;BME280;22232;50.914;13.858;2022-08-19T01:06:38;97082.03;;;20.49;100.00
36190;BME280;22232;50.914;13.858;2022-08-19T01:09:07;97089.25;;;20.53;100.00
36190;BME280;22232;50.914;13.858;2022-08-19T01:11:39;97082.03;;;20.49;100.00
36190;BME280;22232;50.914;13.858;2022-08-19T01:14:09;97089.03;;;20.50;100.00
36190;BME280;22232;50.914;13.858;2022-08-19T01:16:38;97099.09;;;20.49;100.00
36190;BME280;22232;50.914;13.858;2022-08-19T01:19:15;97094.47;;;20.50;100.00
36190;BME280;22232;50.914;13.858;2022-08-19T01:21:51;97104.50;;;20.49;100.00
36190;BME280;22232;50.914;13.858;2022-08-19T01:24:20;97100.06;;;20.53;100.00
36190;BME280;22232;50.914;13.858;2022-08-19T01:26:48;97098.97;;;20.54;100.00
36190;BME280;22232;50.914;13.858;2022-08-19T01:29:16;97094.13;;;20.43;100.00
36190;BME280;22232;50.914;13.858;2022-08-19T01:31:46;97096.81;;;20.43;100.00
36190;BME280;22232;50.914;13.858;2022-08-19T01:34:13;97093.75;;;20.35;100.00
36190;BME280;22232;50.914;13.858;2022-08-19T01:36:46;97095.19;;;20.33;100.00
36190;BME280;22232;50.914;13.858;2022-08-19T01:39:24;97092.34;;;20.38;100.00
36190;BME280;22232;50.914;13.858;2022-08-19T01:41:52;97093.75;;;20.35;100.00
36190;BME280;22232;50.914;13.858;2022-08-19T01:44:21;97092.16;;;20.34;100.00
36190;BME280;22232;50.914;13.858;2022-08-19T01:46:51;97085.31;;;20.37;100.00
36190;BME280;22232;50.914;13.858;2022-08-19T01:49:21;97087.69;;;20.30;100.00
36190;BME280;22232;50.914;13.858;2022-08-19T01:51:49;97089.56;;;20.29;100.00
36190;BME280;22232;50.914;13.858;2022-08-19T01:54:19;97085.28;;;20.28;100.00
36190;BME280;22232;50.914;13.858;2022-08-19T01:57:01;97073.19;;;20.34;100.00
36190;BME280;22232;50.914;13.858;2022-08-19T01:59:32;97069.34;;;20.27;100.00
36190;BME280;22232;50.914;13.858;2022-08-19T02:02:00;97066.44;;;20.23;100.00
36190;BME280;22232;50.914;13.858;2022-08-19T02:04:28;97085.22;;;20.20;100.00
36190;BME280;22232;50.914;13.858;2022-08-19T02:06:57;97093.06;;;20.21;100.00
36190;BME280;22232;50.914;13.858;2022-08-19T02:09:25;97096.84;;;20.20;100.00
36190;BME280;22232;50.914;13.858;2022-08-19T02:11:52;97100.19;;;20.17;100.00
36190;BME280;22232;50.914;13.858;2022-08-19T02:14:20;97099.41;;;20.16;100.00
36190;BME280;22232;50.914;13.858;2022-08-19T02:16:48;97101.31;;;20.16;100.00
36190;BME280;22232;50.914;13.858;2022-08-19T02:19:15;97095.09;;;20.15;100.00
36190;BME280;22232;50.914;13.858;2022-08-19T02:21:44;97103.22;;;20.15;100.00
36190;BME280;22232;50.914;13.858;2022-08-19T02:24:11;97100.19;;;20.17;100.00
36190;BME280;22232;50.914;13.858;2022-08-19T02:26:39;97095.09;;;20.15;100.00
36190;BME280;22232;50.914;13.858;2022-08-19T02:29:07;97099.09;;;20.18;100.00
36190;BME280;22232;50.914;13.858;2022-08-19T02:31:35;97087.09;;;20.10;100.00
36190;BME280;22232;50.914;13.858;2022-08-19T02:34:03;97090.91;;;20.09;100.00
36190;BME280;22232;50.914;13.858;2022-08-19T02:36:30;97099.22;;;20.13;100.00
36190;BME280;22232;50.914;13.858;2022-08-19T02:38:59;97094.31;;;20.15;100.00
36190;BME280;22232;50.914;13.858;2022-08-19T02:41:31;97085.69;;;20.13;100.00
36190;BME280;22232;50.914;13.858;2022-08-19T02:44:01;97073.25;;;20.12;100.00
36190;BME280;22232;50.914;13.858;2022-08-19T02:46:51;97072.59;;;20.06;100.00
36190;BME280;22232;50.914;13.858;2022-08-19T02:49:19;97078.31;;;20.05;100.00
36190;BME280;22232;50.914;13.858;2022-08-19T02:51:47;97093.25;;;20.02;100.00
36190;BME280;22232;50.914;13.858;2022-08-19T02:54:15;97098.88;;;20.06;100.00
36190;BME280;22232;50.914;13.858;2022-08-19T02:56:43;97107.00;;;20.06;100.00
36190;BME280;22232;50.914;13.858;2022-08-19T02:59:11;97105.69;;;20.03;100.00
36190;BME280;22232;50.914;13.858;2022-08-19T03:01:41;97101.88;;;20.04;100.00
36190;BME280;22232;50.914;13.858;2022-08-19T03:04:11;97091.72;;;20.10;100.00
36190;BME280;22232;50.914;13.858;2022-08-19T03:06:42;97097.63;;;20.12;100.00
36190;BME280;22232;50.914;13.858;2022-08-19T03:09:10;97101.75;;;20.09;100.00
36190;BME280;22232;50.914;13.858;2022-08-19T03:11:39;97099.34;;;20.08;100.00
36190;BME280;22232;50.914;13.858;2022-08-19T03:14:08;97097.94;;;20.10;100.00
36190;BME280;22232;50.914;13.858;2022-08-19T03:16:48;97107.84;;;20.15;100.00
36190;BME280;22232;50.914;13.858;2022-08-19T03:19:19;97112.00;;;20.21;100.00
36190;BME280;22232;50.914;13.858;2022-08-19T03:21:49;97103.50;;;20.14;100.00
36190;BME280;22232;50.914;13.858;2022-08-19T03:24:17;97107.50;;;20.16;100.00
36190;BME280;22232;50.914;13.858;2022-08-19T03:26:51;97110.84;;;20.13;100.00
36190;BME280;22232;50.914;13.858;2022-08-19T03:29:19;97119.75;;;20.14;100.00
36190;BME280;22232;50.914;13.858;2022-08-19T03:31:59;97114.03;;;20.15;100.00
36190;BME280;22232;50.914;13.858;2022-08-19T03:34:32;97122.34;;;20.19;100.00
36190;BME280;22232;50.914;13.858;2022-08-19T03:37:05;97127.94;;;20.23;100.00
36190;BME280;22232;50.914;13.858;2022-08-19T03:39:36;97118.34;;;20.16;100.00
36190;BME280;22232;50.914;13.858;2022-08-19T03:42:05;97126.78;;;20.15;100.00
36190;BME280;22232;50.914;13.858;2022-08-19T03:44:52;97118.34;;;20.16;100.00
36190;BME280;22232;50.914;13.858;2022-08-19T03:47:20;97109.59;;;20.20;100.00
36190;BME280;22232;50.914;13.858;2022-08-19T03:49:48;97113.53;;;20.13;100.00
36190;BME280;22232;50.914;13.858;2022-08-19T03:52:15;97109.53;;;20.11;100.00
36190;BME280;22232;50.914;13.858;2022-08-19T03:54:43;97109.72;;;20.14;100.00
36190;BME280;22232;50.914;13.858;2022-08-19T03:57:10;97109.09;;;20.17;100.00
36190;BME280;22232;50.914;13.858;2022-08-19T03:59:38;97102.59;;;20.19;100.00
36190;BME280;22232;50.914;13.858;2022-08-19T04:02:09;97106.59;;;20.21;100.00
36190;BME280;22232;50.914;13.858;2022-08-19T04:04:39;97110.09;;;20.22;100.00
36190;BME280;22232;50.914;13.858;2022-08-19T04:07:08;97109.09;;;20.17;100.00
36190;BME280;22232;50.914;13.858;2022-08-19T04:09:36;97109.72;;;20.14;100.00
36190;BME280;22232;50.914;13.858;2022-08-19T04:12:05;97103.50;;;20.14;100.00
36190;BME280;22232;50.914;13.858;2022-08-19T04:14:34;97104.50;;;20.18;100.00
36190;BME280;22232;50.914;13.858;2022-08-19T04:17:03;97104.69;;;20.22;100.00
36190;BME280;22232;50.914;13.858;2022-08-19T04:19:34;97103.28;;;20.24;100.00
36190;BME280;22232;50.914;13.858;2022-08-19T04:22:03;97102.94;;;20.26;100.00
36190;BME280;22232;50.914;13.858;2022-08-19T04:24:31;97109.47;;;20.25;100.00
36190;BME280;22232;50.914;13.858;2022-08-19T04:27:02;97124.94;;;20.24;100.00
36190;BME280;22232;50.914;13.858;2022-08-19T04:29:30;97116.00;;;20.24;100.00
36190;BME280;22232;50.914;13.858;2022-08-19T04:31:58;97109.44;;;20.16;100.00
36190;BME280;22232;50.914;13.858;2022-08-19T04:34:36;97092.22;;;20.12;100.00
36190;BME280;22232;50.914;13.858;2022-08-19T04:37:25;97099.72;;;20.15;100.00
36190;BME280;22232;50.914;13.858;2022-08-19T04:40:04;97098.59;;;20.16;100.00
36190;BME280;22232;50.914;13.858;2022-08-19T04:42:50;97101.94;;;20.13;100.00
36190;BME280;22232;50.914;13.858;2022-08-19T04:45:18;97108.13;;;20.13;100.00
36190;BME280;22232;50.914;13.858;2022-08-19T04:47:49;97107.28;;;20.04;100.00
36190;BME280;22232;50.914;13.858;2022-08-19T04:50:41;97099.66;;;20.06;100.00
36190;BME280;22232;50.914;13.858;2022-08-19T04:53:09;97102.66;;;20.05;100.00
36190;BME280;22232;50.914;13.858;2022-08-19T04:55:42;97102.38;;;20.06;100.00
36190;BME280;22232;50.914;13.858;2022-08-19T04:58:09;97111.91;;;20.04;100.00
36190;BME280;22232;50.914;13.858;2022-08-19T05:00:38;97115.53;;;19.99;100.00
36190;BME280;22232;50.914;13.858;2022-08-19T05:03:07;97123.03;;;20.02;100.00
36190;BME280;22232;50.914;13.858;2022-08-19T05:05:39;97122.41;;;20.05;100.00
36190;BME280;22232;50.914;13.858;2022-08-19T05:08:12;97128.66;;;20.06;100.00
36190;BME280;22232;50.914;13.858;2022-08-19T05:10:41;97134.84;;;20.06;100.00
36190;BME280;22232;50.914;13.858;2022-08-19T05:13:09;97139.31;;;20.11;100.00
36190;BME280;22232;50.914;13.858;2022-08-19T05:15:38;97147.44;;;20.11;100.00
36190;BME280;22232;50.914;13.858;2022-08-19T05:18:05;97153.97;;;20.10;100.00
36190;BME280;22232;50.914;13.858;2022-08-19T05:20:52;97176.75;;;20.09;100.00
36190;BME280;22232;50.914;13.858;2022-08-19T05:23:45;97166.84;;;20.04;100.00
36190;BME280;22232;50.914;13.858;2022-08-19T05:26:12;97172.56;;;20.03;100.00
36190;BME280;22232;50.914;13.858;2022-08-19T05:28:40;97166.66;;;20.01;100.00
36190;BME280;22232;50.914;13.858;2022-08-19T05:31:08;97170.94;;;20.02;100.00
36190;BME280;22232;50.914;13.858;2022-08-19T05:33:35;97161.34;;;19.96;100.00
36190;BME280;22232;50.914;13.858;2022-08-19T05:36:03;97171.09;;;19.97;100.00
36190;BME280;22232;50.914;13.858;2022-08-19T05:38:31;97172.38;;;19.99;100.00
36190;BME280;22232;50.914;13.858;2022-08-19T05:40:59;97182.22;;;19.95;100.00
36190;BME280;22232;50.914;13.858;2022-08-19T05:43:26;97181.84;;;19.88;100.00
36190;BME280;22232;50.914;13.858;2022-08-19T05:45:54;97190.75;;;19.88;100.00
36190;BME280;22232;50.914;13.858;2022-08-19T05:48:22;97197.94;;;19.93;100.00
36190;BME280;22232;50.914;13.858;2022-08-19T05:50:49;97200.59;;;19.84;100.00
36190;BME280;22232;50.914;13.858;2022-08-19T05:53:18;97208.41;;;19.86;100.00
36190;BME280;22232;50.914;13.858;2022-08-19T05:55:46;97211.91;;;19.86;100.00
36190;BME280;22232;50.914;13.858;2022-08-19T05:58:13;97217.81;;;19.88;100.00
36190;BME280;22232;50.914;13.858;2022-08-19T06:00:42;97226.22;;;19.87;100.00
36190;BME280;22232;50.914;13.858;2022-08-19T06:03:11;97227.06;;;19.87;100.00
36190;BME280;22232;50.914;13.858;2022-08-19T06:05:40;97235.78;;;19.84;100.00
36190;BME280;22232;50.914;13.858;2022-08-19T06:08:16;97242.78;;;19.85;100.00
36190;BME280;22232;50.914;13.858;2022-08-19T06:10:45;97252.63;;;19.81;100.00
36190;BME280;22232;50.914;13.858;2022-08-19T06:13:13;97262.75;;;19.76;100.00
36190;BME280;22232;50.914;13.858;2022-08-19T06:15:41;97265.56;;;19.70;100.00
36190;BME280;22232;50.914;13.858;2022-08-19T06:18:12;97275.09;;;19.68;100.00
36190;BME280;22232;50.914;13.858;2022-08-19T06:20:41;97271.06;;;19.65;100.00
36190;BME280;22232;50.914;13.858;2022-08-19T06:23:22;97274.88;;;19.64;100.00
36190;BME280;22232;50.914;13.858;2022-08-19T06:25:50;97271.59;;;19.67;100.00
36190;BME280;22232;50.914;13.858;2022-08-19T06:28:18;97287.09;;;19.62;100.00
36190;BME280;22232;50.914;13.858;2022-08-19T06:30:46;97286.50;;;19.65;100.00
36190;BME280;22232;50.914;13.858;2022-08-19T06:33:13;97286.22;;;19.66;100.00
36190;BME280;22232;50.914;13.858;2022-08-19T06:35:41;97287.09;;;19.62;100.00
36190;BME280;22232;50.914;13.858;2022-08-19T06:38:09;97294.63;;;19.65;100.00
36190;BME280;22232;50.914;13.858;2022-08-19T06:40:37;97300.59;;;19.62;100.00
36190;BME280;22232;50.914;13.858;2022-08-19T06:43:05;97303.25;;;19.67;100.00
36190;BME280;22232;50.914;13.858;2022-08-19T06:45:37;97306.53;;;19.64;100.00
36190;BME280;22232;50.914;13.858;2022-08-19T06:48:06;97304.94;;;19.63;100.00
36190;BME280;22232;50.914;13.858;2022-08-19T06:50:34;97314.44;;;19.60;100.00
36190;BME280;22232;50.914;13.858;2022-08-19T06:53:05;97310.13;;;19.59;100.00
36190;BME280;22232;50.914;13.858;2022-08-19T06:55:33;97314.44;;;19.60;100.00
36190;BME280;22232;50.914;13.858;2022-08-19T06:58:03;97311.16;;;19.63;100.00
36190;BME280;22232;50.914;13.858;2022-08-19T07:00:31;97307.94;;;19.61;100.00
36190;BME280;22232;50.914;13.858;2022-08-19T07:02:59;97310.56;;;19.66;100.00
36190;BME280;22232;50.914;13.858;2022-08-19T07:05:41;97310.91;;;19.60;100.00
36190;BME280;22232;50.914;13.858;2022-08-19T07:08:13;97314.94;;;19.62;100.00
36190;BME280;22232;50.914;13.858;2022-08-19T07:10:44;97315.25;;;19.61;100.00
36190;BME280;22232;50.914;13.858;2022-08-19T07:13:12;97319.84;;;19.60;100.00
36190;BME280;22232;50.914;13.858;2022-08-19T07:15:40;97325.28;;;19.60;100.00
36190;BME280;22232;50.914;13.858;2022-08-19T07:18:09;97332.00;;;19.63;100.00
36190;BME280;22232;50.914;13.858;2022-08-19T07:20:40;97328.16;;;19.64;100.00
36190;BME280;22232;50.914;13.858;2022-08-19T07:23:08;97331.91;;;19.68;100.00
36190;BME280;22232;50.914;13.858;2022-08-19T07:25:43;97323.78;;;19.68;100.00
36190;BME280;22232;50.914;13.858;2022-08-19T07:28:19;97323.38;;;19.61;100.00
36190;BME280;22232;50.914;13.858;2022-08-19T07:30:51;97319.25;;;19.77;100.00
36190;BME280;22232;50.914;13.858;2022-08-19T07:33:19;97320.94;;;19.87;100.00
36190;BME280;22232;50.914;13.858;2022-08-19T07:35:47;97315.63;;;19.96;100.00
36190;BME280;22232;50.914;13.858;2022-08-19T07:38:16;97327.34;;;20.05;100.00
36190;BME280;22232;50.914;13.858;2022-08-19T07:40:44;97323.31;;;20.16;100.00
36190;BME280;22232;50.914;13.858;2022-08-19T07:43:13;97316.25;;;20.29;100.00
36190;BME280;22232;50.914;13.858;2022-08-19T07:45:44;97309.81;;;20.38;100.00
36190;BME280;22232;50.914;13.858;2022-08-19T07:48:14;97321.03;;;20.46;100.00
36190;BME280;22232;50.914;13.858;2022-08-19T07:50:42;97316.09;;;20.61;100.00
36190;BME280;22232;50.914;13.858;2022-08-19T07:53:10;97325.94;;;20.80;100.00
36190;BME280;22232;50.914;13.858;2022-08-19T07:55:39;97318.72;;;20.98;100.00
36190;BME280;22232;50.914;13.858;2022-08-19T07:58:12;97322.56;;;21.05;100.00
36190;BME280;22232;50.914;13.858;2022-08-19T08:00:41;97330.09;;;21.08;100.00
36190;BME280;22232;50.914;13.858;2022-08-19T08:03:10;97337.47;;;21.17;100.00
36190;BME280;22232;50.914;13.858;2022-08-19T08:05:38;97344.09;;;21.02;100.00
36190;BME280;22232;50.914;13.858;2022-08-19T08:08:24;97340.94;;;21.08;100.00
36190;BME280;22232;50.914;13.858;2022-08-19T08:11:17;97342.28;;;21.20;100.00
36190;BME280;22232;50.914;13.858;2022-08-19T08:13:47;97345.00;;;21.20;100.00
36190;BME280;22232;50.914;13.858;2022-08-19T08:16:34;97346.72;;;21.16;100.00
36190;BME280;22232;50.914;13.858;2022-08-19T08:19:14;97349.16;;;20.95;100.00
36190;BME280;22232;50.914;13.858;2022-08-19T08:21:54;97357.56;;;20.93;100.00
36190;BME280;22232;50.914;13.858;2022-08-19T08:24:23;97359.13;;;20.85;100.00
36190;BME280;22232;50.914;13.858;2022-08-19T08:26:55;97362.03;;;20.89;100.00
36190;BME280;22232;50.914;13.858;2022-08-19T08:29:25;97378.13;;;20.85;100.00
36190;BME280;22232;50.914;13.858;2022-08-19T08:32:01;97372.38;;;20.87;100.00
36190;BME280;22232;50.914;13.858;2022-08-19T08:34:42;97366.25;;;20.81;100.00
36190;BME280;22232;50.914;13.858;2022-08-19T08:37:10;97352.25;;;20.79;100.00
36190;BME280;22232;50.914;13.858;2022-08-19T08:39:37;97344.59;;;20.81;100.00
36190;BME280;22232;50.914;13.858;2022-08-19T08:42:18;97344.34;;;20.92;100.00
36190;BME280;22232;50.914;13.858;2022-08-19T08:45:14;97344.34;;;20.92;100.00
36190;BME280;22232;50.914;13.858;2022-08-19T08:47:47;97364.63;;;20.94;100.00
36190;BME280;22232;50.914;13.858;2022-08-19T08:53:17;97359.50;;;21.15;100.00
36190;BME280;22232;50.914;13.858;2022-08-19T08:56:02;97358.09;;;21.49;100.00
36190;BME280;22232;50.914;13.858;2022-08-19T08:58:41;97361.22;;;21.73;100.00
36190;BME280;22232;50.914;13.858;2022-08-19T09:01:11;97365.69;;;21.78;100.00
36190;BME280;22232;50.914;13.858;2022-08-19T09:03:40;97366.50;;;21.79;100.00
36190;BME280;22232;50.914;13.858;2022-08-19T09:17:20;97363.63;;;21.75;100.00
36190;BME280;22232;50.914;13.858;2022-08-19T09:19:55;97351.09;;;21.57;100.00
36190;BME280;22232;50.914;13.858;2022-08-19T09:22:23;97341.19;;;21.52;100.00
36190;BME280;22232;50.914;13.858;2022-08-19T09:24:54;97346.47;;;21.57;100.00
36190;BME280;22232;50.914;13.858;2022-08-19T09:27:24;97345.72;;;21.65;100.00
36190;BME280;22232;50.914;13.858;2022-08-19T09:30:15;97334.91;;;21.83;100.00
36190;BME280;22232;50.914;13.858;2022-08-19T09:32:44;97335.72;;;21.92;100.00
36190;BME280;22232;50.914;13.858;2022-08-19T09:35:13;97336.38;;;21.89;100.00
36190;BME280;22232;50.914;13.858;2022-08-19T09:37:42;97343.53;;;21.85;100.00
36190;BME280;22232;50.914;13.858;2022-08-19T09:40:11;97353.06;;;21.65;100.00
36190;BME280;22232;50.914;13.858;2022-08-19T09:42:39;97361.16;;;21.56;100.00
36190;BME280;22232;50.914;13.858;2022-08-19T09:45:18;97361.41;;;21.37;100.00
36190;BME280;22232;50.914;13.858;2022-08-19T09:47:50;97361.13;;;21.25;100.00
36190;BME280;22232;50.914;13.858;2022-08-19T09:50:22;97364.19;;;21.01;100.00
36190;BME280;22232;50.914;13.858;2022-08-19T09:52:51;97360.06;;;21.03;100.00
36190;BME280;22232;50.914;13.858;2022-08-19T09:55:25;97353.97;;;20.98;100.00
36190;BME280;22232;50.914;13.858;2022-08-19T09:58:01;97356.97;;;20.96;100.00
36190;BME280;22232;50.914;13.858;2022-08-19T10:00:30;97370.34;;;21.15;100.00
36190;BME280;22232;50.914;13.858;2022-08-19T10:02:58;97366.00;;;21.14;100.00
36190;BME280;22232;50.914;13.858;2022-08-19T10:05:27;97365.78;;;21.33;100.00
36190;BME280;22232;50.914;13.858;2022-08-19T10:08:17;97362.41;;;21.50;100.00
36190;BME280;22232;50.914;13.858;2022-08-19T10:10:47;97364.75;;;21.74;100.00
36190;BME280;22232;50.914;13.858;2022-08-19T10:13:18;97365.94;;;21.99;100.00
36190;BME280;22232;50.914;13.858;2022-08-19T10:15:49;97364.75;;;22.23;100.00
36190;BME280;22232;50.914;13.858;2022-08-19T10:18:20;97376.28;;;22.54;100.00
36190;BME280;22232;50.914;13.858;2022-08-19T10:20:49;97376.59;;;22.79;100.00
36190;BME280;22232;50.914;13.858;2022-08-19T10:23:20;97375.63;;;22.92;100.00
36190;BME280;22232;50.914;13.858;2022-08-19T10:25:49;97377.56;;;23.00;100.00
36190;BME280;22232;50.914;13.858;2022-08-19T10:28:17;97385.06;;;23.03;100.00
36190;BME280;22232;50.914;13.858;2022-08-19T10:30:45;97378.34;;;23.09;100.00
36190;BME280;22232;50.914;13.858;2022-08-19T10:33:14;97379.81;;;22.98;100.00
36190;BME280;22232;50.914;13.858;2022-08-19T10:36:23;97391.00;;;23.05;100.00
36190;BME280;22232;50.914;13.858;2022-08-19T10:38:54;97389.69;;;22.85;100.00
36190;BME280;22232;50.914;13.858;2022-08-19T10:41:27;97386.69;;;22.96;100.00
36190;BME280;22232;50.914;13.858;2022-08-19T10:44:01;97392.28;;;23.17;100.00
36190;BME280;22232;50.914;13.858;2022-08-19T10:46:32;97387.75;;;23.38;100.00
36190;BME280;22232;50.914;13.858;2022-08-19T10:49:02;97395.91;;;23.38;100.00
36190;BME280;22232;50.914;13.858;2022-08-19T10:51:31;97408.22;;;23.35;100.00
36190;BME280;22232;50.914;13.858;2022-08-19T10:54:17;97402.41;;;23.54;100.00
36190;BME280;22232;50.914;13.858;2022-08-19T10:56:59;97412.97;;;23.65;100.00
36190;BME280;22232;50.914;13.858;2022-08-19T10:59:29;97415.31;;;23.84;100.00
36190;BME280;22232;50.914;13.858;2022-08-19T11:02:05;97408.47;;;24.37;100.00
36190;BME280;22232;50.914;13.858;2022-08-19T11:04:33;97410.03;;;24.46;100.00
36190;BME280;22232;50.914;13.858;2022-08-19T11:07:03;97400.41;;;24.70;100.00
36190;BME280;22232;50.914;13.858;2022-08-19T11:09:35;97408.47;;;24.66;100.00
36190;BME280;22232;50.914;13.858;2022-08-19T11:12:05;97415.19;;;24.69;100.00
36190;BME280;22232;50.914;13.858;2022-08-19T11:14:33;97406.00;;;24.73;100.00
36190;BME280;22232;50.914;13.858;2022-08-19T11:17:03;97402.66;;;24.89;100.00
36190;BME280;22232;50.914;13.858;2022-08-19T11:19:31;97415.00;;;25.07;100.00
36190;BME280;22232;50.914;13.858;2022-08-19T11:21:59;97414.66;;;25.17;100.00
36190;BME280;22232;50.914;13.858;2022-08-19T11:24:30;97415.78;;;24.95;100.00
36190;BME280;22232;50.914;13.858;2022-08-19T11:27:07;97421.16;;;24.83;100.00
36190;BME280;22232;50.914;13.858;2022-08-19T11:29:38;97422.09;;;24.87;100.00
36190;BME280;22232;50.914;13.858;2022-08-19T11:32:08;97416.47;;;24.71;100.00
36190;BME280;22232;50.914;13.858;2022-08-19T11:34:37;97416.50;;;24.63;100.00
36190;BME280;22232;50.914;13.858;2022-08-19T11:37:05;97413.50;;;24.56;100.00
36190;BME280;22232;50.914;13.858;2022-08-19T11:39:34;97419.97;;;24.51;100.00
36190;BME280;22232;50.914;13.858;2022-08-19T11:42:05;97417.91;;;24.48;100.00
36190;BME280;22232;50.914;13.858;2022-08-19T11:44:53;97418.75;;;24.31;100.00
36190;BME280;22232;50.914;13.858;2022-08-19T11:47:21;97422.22;;;24.40;100.00
36190;BME280;22232;50.914;13.858;2022-08-19T11:49:49;97418.41;;;24.41;100.00
36190;BME280;22232;50.914;13.858;2022-08-19T11:52:17;97423.47;;;24.52;100.00
36190;BME280;22232;50.914;13.858;2022-08-19T11:54:44;97420.44;;;24.53;100.00
36190;BME280;22232;50.914;13.858;2022-08-19T11:57:12;97421.56;;;24.52;100.00
36190;BME280;22232;50.914;13.858;2022-08-19T11:59:47;97418.94;;;24.56;100.00
36190;BME280;22232;50.914;13.858;2022-08-19T12:02:15;97422.06;;;24.45;100.00
36190;BME280;22232;50.914;13.858;2022-08-19T12:04:42;97413.31;;;24.31;100.00
36190;BME280;22232;50.914;13.858;2022-08-19T12:07:10;97415.16;;;24.18;100.00
36190;BME280;22232;50.914;13.858;2022-08-19T12:09:38;97417.13;;;24.09;100.00
36190;BME280;22232;50.914;13.858;2022-08-19T12:12:09;97424.38;;;24.05;100.00
36190;BME280;22232;50.914;13.858;2022-08-19T12:14:37;97427.59;;;23.98;100.00
36190;BME280;22232;50.914;13.858;2022-08-19T12:17:05;97429.91;;;23.79;100.00
36190;BME280;22232;50.914;13.858;2022-08-19T12:19:36;97430.91;;;23.74;100.00
36190;BME280;22232;50.914;13.858;2022-08-19T12:22:04;97434.75;;;23.65;100.00
36190;BME280;22232;50.914;13.858;2022-08-19T12:24:33;97428.03;;;23.71;100.00
36190;BME280;22232;50.914;13.858;2022-08-19T12:27:01;97424.00;;;23.77;100.00
36190;BME280;22232;50.914;13.858;2022-08-19T12:29:29;97430.56;;;23.76;100.00
36190;BME280;22232;50.914;13.858;2022-08-19T12:31:58;97431.22;;;23.73;100.00
36190;BME280;22232;50.914;13.858;2022-08-19T12:34:31;97433.13;;;23.72;100.00
36190;BME280;22232;50.914;13.858;2022-08-19T12:37:02;97440.03;;;23.61;100.00
36190;BME280;22232;50.914;13.858;2022-08-19T12:39:35;97437.16;;;23.49;100.00
36190;BME280;22232;50.914;13.858;2022-08-19T12:42:03;97430.44;;;23.46;100.00
36190;BME280;22232;50.914;13.858;2022-08-19T12:44:31;97434.94;;;23.51;100.00
36190;BME280;22232;50.914;13.858;2022-08-19T12:47:00;97432.38;;;23.46;100.00
36190;BME280;22232;50.914;13.858;2022-08-19T12:49:31;97431.09;;;23.43;100.00
36190;BME280;22232;50.914;13.858;2022-08-19T12:52:23;97434.00;;;23.38;100.00
36190;BME280;22232;50.914;13.858;2022-08-19T12:54:55;97434.38;;;23.19;100.00
36190;BME280;22232;50.914;13.858;2022-08-19T12:57:25;97439.97;;;22.97;100.00
36190;BME280;22232;50.914;13.858;2022-08-19T13:02:35;97435.78;;;22.64;100.00
36190;BME280;22232;50.914;13.858;2022-08-19T13:05:07;97438.56;;;22.25;100.00
36190;BME280;22232;50.914;13.858;2022-08-19T13:07:36;97427.66;;;22.16;100.00
36190;BME280;22232;50.914;13.858;2022-08-19T13:10:07;97439.28;;;22.08;100.00
36190;BME280;22232;50.914;13.858;2022-08-19T13:12:35;97432.22;;;21.98;100.00
36190;BME280;22232;50.914;13.858;2022-08-19T13:15:04;97439.69;;;21.92;100.00
36190;BME280;22232;50.914;13.858;2022-08-19T13:17:38;97440.13;;;21.77;100.00
36190;BME280;22232;50.914;13.858;2022-08-19T13:20:08;97438.94;;;21.69;100.00
36190;BME280;22232;50.914;13.858;2022-08-19T13:22:37;97440.56;;;21.70;100.00